KBED/BED METAR and TAF weather

Enter ICAO airport designator
Station Type Date Time Source
KBED METAR 2019/08/19 12:56 UTC NOAA

KBED 191256Z 21007KT 10SM FEW060 SCT180 28/20 A2996 RMK AO2 SLP153 T02780200


Station Type Date Time Source
KBED Decoded METAR 2019/08/19 12:56 UTC NOAA

Station name not available
Aug 19, 2019 - 08:56 AM EDT / 2019.08.19 1256 UTC
Wind: from the SSW (210 degrees) at 8 MPH (7 KT):0
Visibility: 10 mile(s):0
Sky conditions: partly cloudy
Temperature: 82.0 F (27.8 C)
Dew Point: 68.0 F (20.0 C)
Relative Humidity: 62%
Pressure (altimeter): 29.96 in. Hg (1014 hPa)
ob: KBED 191256Z 21007KT 10SM FEW060 SCT180 28/20 A2996 RMK AO2 SLP153 T02780200
cycle: 13

Station Type Date Time Source
KBED TAF 2019/08/19 12:24 UTC NOAA

TAF KBED 191120Z 1912/2012 22005KT P6SM SCT200
FM191900 23007KT P6SM FEW100
FM192200 23007KT P6SM VCSH SCT090
FM200000 22004KT P6SM BKN100
FM200400 28004KT P6SM FEW250

Example: see airport list